Bonanza, Oregon
Current Conditions -  °F | °C
As of 12:53 PM on Wednesday 17 Dec 2014 (Local Time) from KLMT Reporting Station
Overcast Overcast  
Wind Chill: 37°   Ceiling: 4500
Heat Index: 42°   Visibility: 10mi
Dew Point: 34°   Wind: 9mph
Humidity: 73%   Direction: 160°SSE
Pressure: 29.87"   Gusts: NA
Location:  42.2°N, 121.41°W
Report Text: KLMT 172053Z 16008KT 10SM FEW036 OVC045 06/01 A2987 RMK AO2 RAB1954E33 SLP114 P0001 60001 T00560011 50000
Loading
Personal Weather Stations






























Interactive Weather Map New forecast layout! Learn more

10-Day Weather Forecast

Advertisements
Track Severe Weather on mobile